This is the latest recevied weather packets stored in our database for station/object LX2ZZ-13. If no packets are shown the sender has not sent any weather packets the latest 10 day(s).
| Time | Temp. | Humidity | Pressure | Rain* | Wind** | Luminosity | Snow |
|---|---|---|---|---|---|---|---|
| 1777334780 | 10° C | 67% | 1017.8 hPa | 0 mm | - | - | - |
| 1777328729 | 8.89° C | 80% | 1017.9 hPa | 0 mm | - | - | - |
| 1777321553 | 11.11° C | 67% | 1017.9 hPa | 0 mm | - | - | - |
| 1777320949 | 10.56° C | 73% | 1017.9 hPa | 0 mm | - | - | - |
| 1777317934 | 12.22° C | 64% | 1018 hPa | 0 mm | - | - | - |
| 1777310757 | 17.78° C | 49% | 1018.1 hPa | 0 mm | - | - | - |
| 1777305329 | 20° C | 36% | 1018.6 hPa | 0 mm | - | - | - |
| 1777302374 | 21.67° C | 30% | 1019.1 hPa | 0 mm | - | - | - |
| 1777301770 | 21.67° C | 31% | 1019.2 hPa | 0 mm | - | - | - |
| 1777299358 | 21.67° C | 30% | 1019.5 hPa | 0 mm | - | - | - |
| 1777292121 | 19.44° C | 35% | 1020.5 hPa | 0 mm | - | - | - |
| 1777290975 | 19.44° C | 36% | 1020.7 hPa | 0 mm | - | - | - |
| 1777287356 | 18.89° C | 38% | 1021.2 hPa | 0 mm | - | - | - |
| 1777283737 | 17.78° C | 42% | 1021.8 hPa | 0 mm | - | - | - |
| 1777280721 | 16.11° C | 44% | 1021.8 hPa | 0 mm | - | - | - |
| 1777277767 | 13.89° C | 51% | 1022.1 hPa | 0 mm | - | - | - |
| 1777276560 | 13.33° C | 54% | 1022.2 hPa | 0 mm | - | - | - |
| 1777274147 | 11.11° C | 60% | 1022.2 hPa | 0 mm | - | - | - |
| 1777272941 | 9.44° C | 69% | 1022.3 hPa | 0 mm | - | - | - |
| 1777270529 | 6.67° C | 77% | 1022.4 hPa | 0 mm | - | - | - |
| 1777264558 | 0.56° C | 96% | 1021.8 hPa | 0 mm | - | - | - |
| 1777260940 | 1.67° C | 95% | 1021.9 hPa | 0 mm | - | - | - |
| 1777260336 | 1.67° C | 93% | 1021.9 hPa | 0 mm | - | - | - |
| 1777256717 | 2.78° C | 89% | 1022 hPa | 0 mm | - | - | - |
| 1777243569 | 7.22° C | 75% | 1022.4 hPa | 0 mm | - | - | - |
* Rain latest hour (hover to see other rain measurements)
** Current wind speed in m/s (hover to see current wind gust speed)